Time;durP1;ratioP1;P1;durP2;ratioP2;P2;SDS_P1;SDS_P2;PMS_P1;PMS_P2;Temp;Humidity;BMP_temperature;BMP_pressure;BME280_temperature;BME280_humidity;BME280_pressure;Samples;Min_cycle;Max_cycle;Signal;HPM_P1;HPM_P2
2023/11/13 00:00:48;;;;;;;7.72;5.63;;;;;;;6.35;79.92;98048.09;5006973;27;103283;-68
2023/11/13 00:03:16;;;;;;;7.57;5.28;;;;;;;6.39;79.90;98046.81;5028893;27;103254;-68
2023/11/13 00:05:47;;;;;;;7.43;5.47;;;;;;;6.43;80.17;98042.88;5008617;27;102751;-68
2023/11/13 00:08:16;;;;;;;12.30;8.50;;;;;;;6.35;79.54;98048.09;5030271;27;104000;-67
2023/11/13 00:10:46;;;;;;;11.57;8.50;;;;;;;6.24;80.22;98043.13;5004300;27;104097;-67
2023/11/13 00:13:14;;;;;;;8.35;6.38;;;;;;;6.28;81.06;98047.91;5030853;27;103722;-67
2023/11/13 00:15:42;;;;;;;9.55;7.10;;;;;;;6.20;81.01;98050.50;5006018;27;103039;-66
2023/11/13 00:18:10;;;;;;;8.10;5.88;;;;;;;6.20;81.02;98039.16;5029525;27;102681;-67
2023/11/13 00:20:38;;;;;;;10.77;7.65;;;;;;;6.24;81.43;98033.41;5026301;27;104405;-66
2023/11/13 00:23:06;;;;;;;13.02;10.27;;;;;;;6.20;81.31;98029.47;5030617;27;103322;-66
2023/11/13 00:25:34;;;;;;;14.07;10.20;;;;;;;6.08;81.21;98021.03;5025285;27;102691;-66
2023/11/13 00:28:05;;;;;;;12.10;7.75;;;;;;;6.03;82.15;98012.78;5031595;27;102618;-66
2023/11/13 00:30:33;;;;;;;12.85;9.82;;;;;;;6.07;81.67;98014.09;5030531;27;104398;-66
2023/11/13 00:33:01;;;;;;;10.73;8.40;;;;;;;6.08;82.14;98010.50;5025253;27;103497;-66
2023/11/13 00:35:29;;;;;;;8.57;6.38;;;;;;;6.18;81.90;98015.63;5014026;27;103292;-67
2023/11/13 00:37:57;;;;;;;7.88;6.28;;;;;;;6.27;81.63;98024.41;5007417;27;102760;-66
2023/11/13 00:40:25;;;;;;;11.27;8.88;;;;;;;6.29;81.08;98017.19;5006919;27;103225;-67
2023/11/13 00:42:54;;;;;;;8.52;6.28;;;;;;;6.30;81.74;98027.53;5004847;27;103428;-67
2023/11/13 00:45:23;;;;;;;8.52;7.10;;;;;;;6.21;81.08;98025.00;5024744;27;102664;-67
2023/11/13 00:47:51;;;;;;;7.57;6.38;;;;;;;6.30;81.32;98018.81;5001452;27;103780;-67
2023/11/13 00:50:19;;;;;;;7.90;6.28;;;;;;;6.35;81.23;98000.75;5015248;27;103351;-67
2023/11/13 00:52:50;;;;;;;11.23;6.78;;;;;;;6.30;80.84;98010.91;5010068;27;103203;-67
2023/11/13 00:55:18;;;;;;;9.85;6.30;;;;;;;6.29;81.33;98001.41;5008441;27;103001;-67
2023/11/13 00:57:46;;;;;;;10.32;6.35;;;;;;;6.34;81.65;97999.13;5006159;27;102815;-67
2023/11/13 01:00:15;;;;;;;8.23;6.10;;;;;;;6.37;81.25;98001.44;5011808;27;104101;-67
2023/11/13 01:02:44;;;;;;;7.43;5.72;;;;;;;6.43;80.88;98002.59;5020582;27;103485;-63
2023/11/13 01:05:12;;;;;;;12.25;8.82;;;;;;;6.38;80.69;97997.81;5030028;27;102625;-63
2023/11/13 01:07:42;;;;;;;7.10;5.57;;;;;;;6.44;81.27;98005.06;5010903;27;103663;-63
2023/11/13 01:10:10;;;;;;;12.35;9.70;;;;;;;6.44;81.30;98004.25;5007305;27;103569;-63
2023/11/13 01:12:38;;;;;;;10.43;7.25;;;;;;;6.42;80.84;98009.66;5007345;27;103374;-62
2023/11/13 01:15:08;;;;;;;9.95;6.35;;;;;;;6.48;80.83;98010.84;5008286;27;102762;-62
2023/11/13 01:17:37;;;;;;;7.50;5.70;;;;;;;6.53;81.17;98002.47;5027439;27;102728;-62
2023/11/13 01:20:08;;;;;;;8.13;5.80;;;;;;;6.60;81.11;98003.47;5008163;27;104454;-62
2023/11/13 01:22:36;;;;;;;8.75;6.55;;;;;;;6.62;81.42;98002.31;5017237;27;103271;-62
2023/11/13 01:25:05;;;;;;;7.95;5.43;;;;;;;6.59;80.60;98007.06;5005392;27;102714;-62
2023/11/13 01:27:33;;;;;;;8.15;5.95;;;;;;;6.64;80.95;98004.78;5008529;27;102807;-63
2023/11/13 01:30:01;;;;;;;7.57;5.70;;;;;;;6.66;81.12;97997.56;5006589;27;104077;-63
2023/11/13 01:32:29;;;;;;;11.43;9.10;;;;;;;6.69;81.41;97991.97;5007724;27;103444;-62
2023/11/13 01:34:57;;;;;;;7.78;6.38;;;;;;;6.69;81.05;97986.72;5029176;27;102899;-63
2023/11/13 01:37:26;;;;;;;10.25;7.47;;;;;;;6.70;80.98;97983.09;5005374;27;104005;-62
2023/11/13 01:39:54;;;;;;;9.40;6.45;;;;;;;6.71;81.23;97965.53;5027212;27;102948;-62
2023/11/13 01:42:22;;;;;;;11.50;8.05;;;;;;;6.69;81.07;97960.41;5010232;27;103886;-62
2023/11/13 01:44:51;;;;;;;8.23;6.07;;;;;;;6.69;81.56;97957.78;5029476;27;102738;-62
2023/11/13 01:47:19;;;;;;;11.25;8.93;;;;;;;6.67;81.13;97951.88;5007532;27;102702;-62
2023/11/13 01:49:47;;;;;;;11.68;8.15;;;;;;;6.67;81.18;97957.13;5005138;27;103634;-62
2023/11/13 01:52:15;;;;;;;12.25;8.55;;;;;;;6.66;81.63;97952.84;5014398;27;103229;-63
2023/11/13 01:54:45;;;;;;;8.88;7.07;;;;;;;6.67;81.53;97964.19;5003770;27;103548;-62
2023/11/13 01:57:13;;;;;;;10.63;8.85;;;;;;;6.68;81.64;97958.78;5005560;27;104285;-62
2023/11/13 01:59:43;;;;;;;21.40;19.30;;;;;;;6.70;81.49;97964.69;5024059;27;103139;-61
2023/11/13 02:02:18;;;;;;;20.67;18.67;;;;;;;6.69;81.66;97955.16;5007142;27;103238;-62
2023/11/13 02:04:46;;;;;;;19.30;17.38;;;;;;;6.67;81.99;97951.88;5005615;27;102747;-62
2023/11/13 02:07:14;;;;;;;17.08;15.38;;;;;;;6.69;81.87;97947.25;5022452;27;104095;-62
2023/11/13 02:09:42;;;;;;;11.63;9.82;;;;;;;6.73;82.03;97948.56;5014656;27;103615;-62
2023/11/13 02:12:14;;;;;;;13.77;10.38;;;;;;;6.79;81.60;97950.56;5007730;27;104132;-63
2023/11/13 02:14:42;;;;;;;15.88;12.18;;;;;;;6.77;81.98;97947.28;5006378;27;102759;-62
2023/11/13 02:17:10;;;;;;;12.85;10.73;;;;;;;6.73;82.33;97961.72;5004867;27;103413;-62
2023/11/13 02:19:38;;;;;;;14.15;11.45;;;;;;;6.82;82.48;97943.34;5031118;27;103573;-62
2023/11/13 02:22:08;;;;;;;7.78;6.80;;;;;;;6.86;81.91;97936.75;5008660;27;103186;-62
2023/11/13 02:24:37;;;;;;;10.00;7.72;;;;;;;6.87;82.24;97925.25;5005939;27;102628;-62
2023/11/13 02:27:07;;;;;;;8.50;6.10;;;;;;;6.91;82.06;97908.94;5009595;27;103959;-62
2023/11/13 02:29:36;;;;;;;7.45;6.00;;;;;;;6.86;82.08;97907.81;5015254;27;104467;-62
2023/11/13 02:32:04;;;;;;;13.27;9.20;;;;;;;6.85;81.86;97912.25;5008944;27;103393;-62
2023/11/13 02:34:33;;;;;;;7.80;6.55;;;;;;;6.84;82.04;97900.06;5007814;27;102630;-63
2023/11/13 02:37:04;;;;;;;8.18;5.95;;;;;;;6.90;82.80;97898.59;5007184;27;104245;-66
2023/11/13 02:39:34;;;;;;;11.80;8.75;;;;;;;6.87;82.42;97893.66;5002174;27;104299;-65
2023/11/13 02:42:03;;;;;;;12.15;9.63;;;;;;;6.72;82.54;97912.72;5020153;27;103404;-62
2023/11/13 02:44:31;;;;;;;8.88;7.43;;;;;;;6.77;82.75;97904.34;5000334;27;103111;-62
2023/11/13 02:46:59;;;;;;;8.90;6.80;;;;;;;6.69;82.93;97910.41;5023223;27;104959;-62
2023/11/13 02:49:27;;;;;;;11.85;8.40;;;;;;;6.79;83.15;97887.38;5016577;27;103063;-62
2023/11/13 02:51:55;;;;;;;10.77;7.68;;;;;;;6.73;82.79;97885.41;5007418;27;103336;-63
2023/11/13 02:54:23;;;;;;;12.50;9.35;;;;;;;6.85;83.44;97885.09;5023543;27;103057;-63
2023/11/13 02:56:52;;;;;;;9.77;7.93;;;;;;;6.86;82.73;97877.03;5001207;27;102751;-63
2023/11/13 02:59:21;;;;;;;8.60;6.55;;;;;;;6.89;82.56;97886.41;5015984;27;104393;-62
2023/11/13 03:01:49;;;;;;;8.88;6.75;;;;;;;6.95;83.14;97883.94;5006819;27;104403;-63
2023/11/13 03:04:20;;;;;;;9.10;6.90;;;;;;;6.95;82.61;97883.94;5023499;27;102651;-63
2023/11/13 03:06:48;;;;;;;10.27;7.15;;;;;;;6.96;83.25;97887.41;5007397;27;104172;-63
2023/11/13 03:09:18;;;;;;;9.25;7.13;;;;;;;7.01;83.20;97897.44;5027613;27;104284;-63
2023/11/13 03:11:46;;;;;;;8.80;6.43;;;;;;;6.99;83.16;97892.34;5009641;27;103296;-63
2023/11/13 03:14:15;;;;;;;13.80;9.90;;;;;;;7.02;83.02;97894.66;5010013;27;103238;-63
2023/11/13 03:16:46;;;;;;;9.98;7.63;;;;;;;7.03;83.20;97903.34;5007463;27;102705;-63
2023/11/13 03:19:15;;;;;;;13.07;8.82;;;;;;;7.08;82.82;97911.59;5007538;27;103415;-63
2023/11/13 03:21:43;;;;;;;12.63;9.38;;;;;;;7.10;83.20;97907.81;5014185;27;103269;-64
2023/11/13 03:24:11;;;;;;;14.52;10.20;;;;;;;7.14;82.95;97916.22;5008716;27;103152;-64
2023/11/13 03:26:42;;;;;;;11.10;8.20;;;;;;;7.17;83.13;97917.69;5029958;27;103052;-64
2023/11/13 03:29:11;;;;;;;14.65;9.98;;;;;;;7.19;82.55;97919.16;5005665;27;103952;-64
2023/11/13 03:31:39;;;;;;;13.70;8.60;;;;;;;7.21;82.63;97916.38;5003067;27;103273;-64
2023/11/13 03:34:08;;;;;;;10.75;7.85;;;;;;;7.23;82.75;97920.47;5003830;27;102751;-64
2023/11/13 03:36:37;;;;;;;14.48;10.85;;;;;;;7.26;82.10;97911.41;5028435;27;102741;-64
2023/11/13 03:39:05;;;;;;;10.05;7.68;;;;;;;7.27;82.56;97910.41;5025423;27;103296;-64
2023/11/13 03:41:33;;;;;;;11.27;7.05;;;;;;;7.28;82.69;97915.53;5025124;27;103371;-64
2023/11/13 03:44:01;;;;;;;15.35;9.73;;;;;;;7.32;82.44;97913.38;5017961;27;102842;-64
2023/11/13 03:46:29;;;;;;;9.85;7.45;;;;;;;7.32;82.63;97912.56;5030010;27;102997;-64
2023/11/13 03:48:58;;;;;;;11.05;8.35;;;;;;;7.27;82.28;97926.22;5032738;27;103273;-64
2023/11/13 03:51:27;;;;;;;12.30;7.95;;;;;;;7.36;82.75;97914.69;5002787;27;103250;-64
2023/11/13 03:53:55;;;;;;;11.57;7.25;;;;;;;7.28;82.89;97931.34;5025634;27;102779;-68
2023/11/13 03:56:25;;;;;;;7.80;6.43;;;;;;;7.38;82.77;97922.44;5030971;27;103487;-67
2023/11/13 03:58:53;;;;;;;10.82;6.93;;;;;;;7.41;82.92;97928.16;5029762;27;104357;-68
2023/11/13 04:01:22;;;;;;;9.57;7.13;;;;;;;7.45;82.48;97924.25;5030037;27;104318;-68
2023/11/13 04:03:50;;;;;;;10.02;6.60;;;;;;;7.44;82.54;97919.94;5010082;27;102715;-67
2023/11/13 04:06:18;;;;;;;11.07;7.90;;;;;;;7.45;82.59;97918.97;5025891;27;104461;-67
2023/11/13 04:08:47;;;;;;;10.15;6.45;;;;;;;7.46;82.18;97923.22;5028055;27;103751;-66
2023/11/13 04:11:15;;;;;;;9.25;6.57;;;;;;;7.51;81.89;97932.47;5010964;27;103543;-66
2023/11/13 04:13:44;;;;;;;9.25;6.40;;;;;;;7.51;82.13;97938.56;5007762;27;102866;-65
2023/11/13 04:16:12;;;;;;;9.13;6.53;;;;;;;7.54;82.48;97938.19;5027025;27;102723;-66
2023/11/13 04:18:40;;;;;;;7.78;5.68;;;;;;;7.52;81.86;97939.34;5005684;27;102942;-66
2023/11/13 04:21:08;;;;;;;11.02;6.47;;;;;;;7.54;82.23;97942.66;5008482;27;103437;-66
2023/11/13 04:23:38;;;;;;;9.35;6.40;;;;;;;7.51;81.68;97954.34;5009890;27;102888;-66
2023/11/13 04:26:08;;;;;;;9.63;6.13;;;;;;;7.50;82.21;97959.81;5025829;27;102700;-67
2023/11/13 04:28:37;;;;;;;10.73;8.00;;;;;;;7.47;82.11;97964.41;5031896;27;104305;-66
2023/11/13 04:31:08;;;;;;;9.32;7.22;;;;;;;7.44;82.39;97972.66;5008810;27;103160;-66
2023/11/13 04:33:36;;;;;;;13.75;10.25;;;;;;;7.37;82.53;97971.66;5021415;27;102623;-66
2023/11/13 04:36:05;;;;;;;9.13;6.75;;;;;;;7.43;82.54;97968.38;5026299;27;103826;-66
2023/11/13 04:38:36;;;;;;;8.63;6.25;;;;;;;7.46;82.87;97973.28;5025844;27;103198;-66
2023/11/13 04:41:04;;;;;;;9.63;7.05;;;;;;;7.51;82.51;97961.44;5026941;27;103337;-67
2023/11/13 04:43:34;;;;;;;8.95;6.35;;;;;;;7.51;82.91;97950.91;5024026;27;102890;-67
2023/11/13 04:46:02;;;;;;;10.27;6.63;;;;;;;7.54;82.30;97963.75;5026609;27;104307;-66
2023/11/13 04:48:30;;;;;;;10.73;7.47;;;;;;;7.55;83.05;97954.84;5030414;27;103263;-67
2023/11/13 04:50:58;;;;;;;9.60;6.47;;;;;;;7.57;82.52;97952.84;5026832;27;103314;-67
2023/11/13 04:53:26;;;;;;;9.95;6.38;;;;;;;7.52;82.12;97955.16;5027858;27;102852;-66
2023/11/13 04:55:56;;;;;;;11.77;7.78;;;;;;;7.53;82.17;97954.19;5027577;27;103753;-67
2023/11/13 04:58:24;;;;;;;8.20;5.55;;;;;;;7.53;82.80;97951.56;5025927;27;103337;-66
2023/11/13 05:00:53;;;;;;;8.50;5.82;;;;;;;7.61;82.94;97954.16;5028669;27;103259;-66
2023/11/13 05:03:22;;;;;;;9.93;4.78;;;;;;;7.68;84.13;97965.69;5023779;27;102953;-67
2023/11/13 05:05:52;;;;;;;7.03;3.40;;;;;;;7.77;84.81;97964.69;5028824;27;104511;-67
2023/11/13 05:08:20;;;;;;;6.25;3.13;;;;;;;7.94;85.65;97964.66;5028949;27;103314;-67
2023/11/13 05:10:49;;;;;;;5.72;2.38;;;;;;;8.06;85.36;97968.56;5025986;27;103235;-66
2023/11/13 05:13:16;;;;;;;7.80;3.00;;;;;;;8.18;85.37;97976.13;5029652;27;102694;-67
2023/11/13 05:15:44;;;;;;;7.70;2.50;;;;;;;8.24;85.10;97968.34;5025645;27;102659;-63
2023/11/13 05:18:14;;;;;;;6.30;2.70;;;;;;;8.29;84.76;97968.66;5026508;27;103201;-63
2023/11/13 05:20:43;;;;;;;6.47;2.45;;;;;;;8.31;84.30;97965.84;5010914;27;104347;-64
2023/11/13 05:23:11;;;;;;;5.10;1.95;;;;;;;8.36;84.87;97974.06;5009997;27;102760;-64
2023/11/13 05:25:40;;;;;;;5.35;1.95;;;;;;;8.41;84.62;97974.38;5008026;27;104492;-64
2023/11/13 05:28:08;;;;;;;6.18;2.20;;;;;;;8.42;84.71;97968.09;5027863;27;103293;-64
2023/11/13 05:30:37;;;;;;;8.32;3.20;;;;;;;8.46;84.40;97969.44;5030273;27;103146;-67
2023/11/13 05:33:05;;;;;;;5.25;2.25;;;;;;;8.46;85.09;97964.16;5012943;27;102959;-67
2023/11/13 05:35:35;;;;;;;6.10;2.10;;;;;;;8.49;84.45;97962.16;5023194;27;103164;-67
2023/11/13 05:38:03;;;;;;;8.25;3.15;;;;;;;8.52;84.42;97954.72;5023707;27;103236;-67
2023/11/13 05:40:31;;;;;;;6.43;3.22;;;;;;;8.53;84.97;97964.28;5008235;27;103166;-66
2023/11/13 05:42:59;;;;;;;12.60;3.45;;;;;;;8.54;84.33;97973.00;5008327;27;103087;-67
2023/11/13 05:45:27;;;;;;;7.05;2.83;;;;;;;8.54;85.25;97973.00;5024837;27;104254;-67
2023/11/13 05:47:55;;;;;;;5.22;2.30;;;;;;;8.56;85.10;97981.59;5009395;27;103381;-67
2023/11/13 05:50:25;;;;;;;7.45;2.88;;;;;;;8.56;84.20;97981.59;5008152;27;103729;-67
2023/11/13 05:52:54;;;;;;;6.47;2.50;;;;;;;8.56;84.52;97978.94;5010726;27;103152;-67
2023/11/13 05:55:23;;;;;;;6.20;2.70;;;;;;;8.57;84.32;97991.97;5024013;27;103909;-68
2023/11/13 05:57:52;;;;;;;7.40;2.70;;;;;;;8.57;84.24;97989.34;5004075;27;103256;-67
2023/11/13 06:00:21;;;;;;;8.15;3.53;;;;;;;8.58;83.98;97971.66;5025274;27;103186;-68
2023/11/13 06:02:49;;;;;;;7.82;4.45;;;;;;;8.59;83.93;97973.31;5022028;27;102764;-67
2023/11/13 06:05:20;;;;;;;10.27;4.15;;;;;;;8.59;84.04;97983.88;5031398;27;102670;-67
2023/11/13 06:07:48;;;;;;;16.88;4.10;;;;;;;8.58;84.80;97984.88;5023830;27;103280;-67
2023/11/13 06:10:18;;;;;;;9.98;3.17;;;;;;;8.57;84.22;97988.53;5008131;27;103217;-67
2023/11/13 06:12:46;;;;;;;8.73;4.80;;;;;;;8.57;84.55;97980.59;5012470;27;102744;-67
2023/11/13 06:15:14;;;;;;;8.07;3.83;;;;;;;8.57;84.47;97980.59;5027318;27;102650;-67
2023/11/13 06:17:42;;;;;;;8.15;3.63;;;;;;;8.57;84.10;97981.41;5025247;27;104080;-67
2023/11/13 06:20:13;;;;;;;6.32;2.92;;;;;;;8.59;84.27;97990.00;5006264;27;104344;-67
2023/11/13 06:22:41;;;;;;;13.90;4.13;;;;;;;8.60;84.05;97990.81;5021541;27;102724;-67
2023/11/13 06:25:10;;;;;;;7.72;3.20;;;;;;;8.59;84.21;97997.06;5026366;27;102889;-66
2023/11/13 06:27:40;;;;;;;6.85;3.00;;;;;;;8.61;84.02;98013.56;5025607;27;103241;-66
2023/11/13 06:30:12;;;;;;;7.72;2.65;;;;;;;8.63;83.97;98006.28;5027904;27;103247;-66
2023/11/13 06:32:40;;;;;;;5.07;2.55;;;;;;;8.63;83.97;98011.56;5031136;27;102634;-67
2023/11/13 06:35:08;;;;;;;8.90;2.80;;;;;;;8.64;83.95;98013.22;5028648;27;102697;-66
2023/11/13 06:37:41;;;;;;;12.00;3.38;;;;;;;8.65;84.12;98006.94;5027805;27;103224;-66
2023/11/13 06:40:16;;;;;;;5.55;2.30;;;;;;;8.65;83.97;98006.94;5011522;27;103497;-65
2023/11/13 06:42:47;;;;;;;6.47;2.58;;;;;;;8.67;83.63;98002.31;5027197;27;102661;-65
2023/11/13 06:45:16;;;;;;;6.35;2.80;;;;;;;8.67;83.83;98002.31;5004239;27;103783;-66
2023/11/13 06:47:50;;;;;;;6.15;3.00;;;;;;;8.68;84.10;97988.13;5005673;27;103299;-67
2023/11/13 06:50:23;;;;;;;6.95;3.08;;;;;;;8.70;84.19;97996.69;5028417;27;103471;-64
2023/11/13 06:52:53;;;;;;;10.95;4.28;;;;;;;8.71;84.28;97987.78;5030112;27;103134;-64
2023/11/13 06:55:21;;;;;;;11.93;4.57;;;;;;;8.74;83.89;97995.34;5010904;27;103858;-68
2023/11/13 06:57:51;;;;;;;12.90;4.80;;;;;;;8.67;83.91;98002.31;5007952;27;103248;-67
2023/11/13 07:00:21;;;;;;;11.90;5.00;;;;;;;8.72;84.36;98007.06;5030731;27;103776;-63
2023/11/13 07:02:50;;;;;;;12.25;4.20;;;;;;;8.70;84.37;98017.81;5029135;27;103074;-67
2023/11/13 07:05:20;;;;;;;17.25;4.78;;;;;;;8.72;84.92;98015.81;5032945;27;103718;-66
2023/11/13 07:07:50;;;;;;;15.40;4.93;;;;;;;8.72;84.69;98015.00;5023542;27;104410;-66
2023/11/13 07:10:21;;;;;;;10.88;3.35;;;;;;;8.73;84.40;98022.75;5026594;27;103297;-66
2023/11/13 07:12:52;;;;;;;14.35;5.07;;;;;;;8.76;85.23;98032.13;5028087;27;102750;-66
2023/11/13 07:15:20;;;;;;;11.25;4.38;;;;;;;8.79;85.61;98037.91;5030488;27;103049;-65
2023/11/13 07:17:49;;;;;;;12.48;5.25;;;;;;;8.83;84.71;98040.19;5033245;27;103237;-66
2023/11/13 07:20:18;;;;;;;7.20;3.33;;;;;;;8.88;84.65;98027.28;5037906;27;102956;-65
2023/11/13 07:22:50;;;;;;;7.88;3.30;;;;;;;8.90;84.14;98049.88;5030261;27;102565;-65
2023/11/13 07:25:19;;;;;;;5.97;2.97;;;;;;;8.92;84.18;98052.34;5031748;27;103854;-65
2023/11/13 07:27:47;;;;;;;5.32;2.67;;;;;;;8.94;84.00;98045.09;5010684;27;103946;-65
2023/11/13 07:30:16;;;;;;;6.72;2.78;;;;;;;8.94;83.92;98045.09;5030539;27;103231;-65
2023/11/13 07:32:44;;;;;;;5.32;2.60;;;;;;;8.95;83.97;98046.75;5029401;27;103090;-65
2023/11/13 07:35:13;;;;;;;4.95;2.78;;;;;;;8.98;83.68;98054.31;5012704;27;102869;-66
2023/11/13 07:37:44;;;;;;;8.30;3.13;;;;;;;8.98;84.01;98051.66;5029006;27;103868;-66
2023/11/13 07:40:14;;;;;;;5.53;3.63;;;;;;;8.99;83.63;98053.31;5026909;27;103313;-66
2023/11/13 07:42:44;;;;;;;9.35;3.80;;;;;;;9.01;83.72;98046.03;5003813;27;102708;-66
2023/11/13 07:45:13;;;;;;;9.07;3.28;;;;;;;9.03;83.64;98033.47;5030924;27;102744;-66
2023/11/13 07:47:43;;;;;;;6.30;2.97;;;;;;;9.05;83.69;98026.22;5027872;27;103112;-65
2023/11/13 07:50:13;;;;;;;6.85;3.50;;;;;;;9.02;83.59;98026.53;5025665;27;103682;-66
2023/11/13 07:52:45;;;;;;;8.68;5.10;;;;;;;9.02;83.90;98028.38;5028483;27;102957;-66
2023/11/13 07:55:14;;;;;;;9.85;5.25;;;;;;;8.89;84.32;98037.66;5025284;27;104278;-67
2023/11/13 07:57:43;;;;;;;10.60;3.65;;;;;;;8.98;84.42;98043.75;5029700;27;103653;-62
2023/11/13 08:00:15;;;;;;;10.50;4.00;;;;;;;8.97;84.86;98044.72;5009221;27;103355;-63
2023/11/13 08:02:46;;;;;;;18.08;7.35;;;;;;;8.96;84.72;98048.34;5023281;27;102669;-63
2023/11/13 08:05:16;;;;;;;8.35;5.05;;;;;;;9.03;85.11;98040.59;5008426;27;102666;-62
2023/11/13 08:07:50;;;;;;;8.18;4.30;;;;;;;9.08;84.41;98046.16;5024940;27;104486;-62
2023/11/13 08:10:19;;;;;;;8.40;4.80;;;;;;;9.07;84.23;98042.69;5024005;27;103760;-62
2023/11/13 08:12:49;;;;;;;14.27;7.68;;;;;;;9.07;84.13;98040.03;5025084;27;102601;-63
2023/11/13 08:15:18;;;;;;;11.38;7.07;;;;;;;9.07;84.14;98047.97;5007109;27;102785;-63
2023/11/13 08:17:52;;;;;;;15.43;8.57;;;;;;;9.09;83.99;98058.34;5013276;27;103612;-63
2023/11/13 08:20:26;;;;;;;12.05;7.82;;;;;;;9.08;83.99;98070.75;5028365;27;103856;-67
2023/11/13 08:22:56;;;;;;;;;;;;;;;9.04;83.97;98058.06;5032407;27;102989;-66
2023/11/13 08:25:26;;;;;;;13.90;9.30;;;;;;;9.11;84.02;98053.72;5030119;27;102571;-66
2023/11/13 08:27:54;;;;;;;14.07;7.80;;;;;;;9.13;84.13;98055.22;5024421;27;104162;-67
2023/11/13 08:30:23;;;;;;;19.00;10.18;;;;;;;9.15;84.47;98059.50;5025878;27;103158;-74
2023/11/13 08:32:59;;;;;;;11.18;6.95;;;;;;;9.19;84.63;98037.81;5028893;27;102676;-72
2023/11/13 08:35:27;;;;;;;13.65;7.43;;;;;;;9.21;84.18;98064.06;5029300;27;102705;-69
2023/11/13 08:37:56;;;;;;;10.88;5.47;;;;;;;9.24;84.29;98046.03;5025641;27;104245;-69
2023/11/13 08:40:25;;;;;;;15.27;8.10;;;;;;;9.27;84.09;98034.31;5024029;27;103184;-69
2023/11/13 08:42:54;;;;;;;10.77;5.20;;;;;;;9.24;84.59;98055.81;5008986;27;103027;-67
2023/11/13 08:45:24;;;;;;;13.60;6.63;;;;;;;9.31;84.21;98026.84;5005870;27;103107;-66
2023/11/13 08:47:54;;;;;;;16.13;6.80;;;;;;;9.28;84.32;98007.69;5029132;27;103272;-66
2023/11/13 08:50:24;;;;;;;16.58;7.28;;;;;;;9.30;84.50;98041.88;5024123;27;103187;-67
2023/11/13 08:52:56;;;;;;;12.60;5.50;;;;;;;9.34;84.73;98035.25;5030559;27;103088;-66
2023/11/13 08:55:25;;;;;;;9.40;4.28;;;;;;;9.40;84.36;98023.97;5010577;27;104239;-66
2023/11/13 08:57:55;;;;;;;12.15;6.25;;;;;;;9.40;83.95;98012.56;5028241;27;102742;-68
2023/11/13 09:00:29;;;;;;;13.70;5.10;;;;;;;9.40;83.99;97997.53;5023958;27;103237;-68
2023/11/13 09:02:58;;;;;;;8.98;4.40;;;;;;;9.42;84.28;97995.53;5027636;27;102583;-68
2023/11/13 09:05:28;;;;;;;12.23;4.97;;;;;;;9.49;84.22;97989.56;5005949;27;102844;-68
2023/11/13 09:07:58;;;;;;;12.43;5.05;;;;;;;9.49;84.15;97979.78;5030179;27;103285;-68
2023/11/13 09:10:27;;;;;;;13.85;5.35;;;;;;;9.55;84.11;97972.97;5010646;27;103079;-68
2023/11/13 09:12:58;;;;;;;11.52;5.65;;;;;;;9.56;83.97;97977.25;5031040;27;102643;-68
2023/11/13 09:15:30;;;;;;;9.98;5.50;;;;;;;9.55;84.38;97978.25;5007822;27;104108;-68
2023/11/13 09:18:05;;;;;;;14.98;6.55;;;;;;;9.57;83.88;97978.91;5008837;27;104141;-68
2023/11/13 09:20:35;;;;;;;9.35;5.47;;;;;;;9.54;84.21;97979.28;5027054;27;103184;-68
2023/11/13 09:23:05;;;;;;;15.35;6.07;;;;;;;9.57;84.11;97960.41;5026129;27;102691;-68
2023/11/13 09:25:34;;;;;;;14.27;6.03;;;;;;;9.56;84.11;97964.03;5027592;27;102741;-69
2023/11/13 09:28:02;;;;;;;13.63;6.18;;;;;;;9.61;84.08;97966.97;5029601;27;103679;-68
2023/11/13 09:30:32;;;;;;;18.55;7.00;;;;;;;9.63;83.85;97949.91;5020441;27;103273;-70
2023/11/13 09:33:02;;;;;;;14.32;5.43;;;;;;;9.62;84.14;97958.84;5030087;27;102612;-71
2023/11/13 09:35:32;;;;;;;10.27;4.97;;;;;;;9.67;83.79;97960.97;5028145;27;102727;-70
2023/11/13 09:38:01;;;;;;;10.27;4.80;;;;;;;9.69;83.87;97953.66;5027757;27;103035;-68
2023/11/13 09:40:34;;;;;;;8.27;3.67;;;;;;;9.75;83.83;97960.06;5004464;27;103401;-67
2023/11/13 09:43:07;;;;;;;8.35;4.25;;;;;;;9.79;83.52;97964.78;5020376;27;103809;-68
2023/11/13 09:45:37;;;;;;;10.60;4.70;;;;;;;9.71;83.41;97956.94;5027489;27;102631;-69
2023/11/13 09:48:08;;;;;;;11.65;4.70;;;;;;;9.73;82.76;97952.31;5022081;27;103280;-68
2023/11/13 09:50:41;;;;;;;8.68;4.15;;;;;;;9.78;82.87;97954.41;5022195;27;103339;-69
2023/11/13 09:53:09;;;;;;;7.45;3.35;;;;;;;9.86;83.13;97950.84;5022490;27;103650;-68
2023/11/13 09:55:41;;;;;;;9.98;3.95;;;;;;;9.92;82.93;97942.19;5027938;27;102666;-69
2023/11/13 09:58:12;;;;;;;11.50;4.63;;;;;;;9.95;82.73;97925.94;5030500;27;103276;-69
2023/11/13 10:00:41;;;;;;;6.25;3.45;;;;;;;9.90;83.17;97921.22;5022932;27;103278;-68
2023/11/13 10:03:14;;;;;;;7.28;3.70;;;;;;;9.94;82.84;97901.34;5010902;27;102835;-70
2023/11/13 10:05:44;;;;;;;8.90;3.42;;;;;;;9.92;83.20;97911.25;5027686;27;102804;-70
2023/11/13 10:08:14;;;;;;;6.78;3.58;;;;;;;9.95;83.40;97912.72;5024820;27;103268;-69
2023/11/13 10:10:42;;;;;;;7.57;3.40;;;;;;;10.00;83.21;97910.34;5026598;27;103222;-71
2023/11/13 10:13:17;;;;;;;6.88;3.00;;;;;;;10.10;83.26;97910.88;5012301;27;102589;-67
2023/11/13 10:15:46;;;;;;;5.18;2.53;;;;;;;10.17;83.08;97912.81;5005622;27;102797;-68
2023/11/13 10:18:16;;;;;;;5.17;2.80;;;;;;;10.25;82.82;97920.63;5022177;27;103955;-69
2023/11/13 10:20:46;;;;;;;4.82;2.65;;;;;;;10.30;82.86;97912.97;5026742;27;103300;-69
2023/11/13 10:23:16;;;;;;;5.25;2.40;;;;;;;10.35;82.68;97900.03;5009471;27;102704;-70
2023/11/13 10:25:46;;;;;;;10.77;3.35;;;;;;;10.39;82.46;97905.78;5006459;27;102999;-68
2023/11/13 10:28:17;;;;;;;7.18;3.33;;;;;;;10.38;82.76;97901.47;5028872;27;104442;-70
2023/11/13 10:30:56;;;;;;;9.48;3.97;;;;;;;10.40;83.08;97897.63;5026816;27;103929;-68
2023/11/13 10:33:27;;;;;;;7.75;3.05;;;;;;;10.42;82.76;97895.59;5006652;27;102768;-68
2023/11/13 10:36:04;;;;;;;5.40;2.85;;;;;;;10.45;83.12;97883.81;5026611;27;102885;-67
2023/11/13 10:38:45;;;;;;;6.35;2.40;;;;;;;10.45;83.48;97891.75;5026120;27;104083;-70
2023/11/13 10:41:21;;;;;;;6.88;3.00;;;;;;;10.50;83.32;97873.50;5027126;27;103400;-70
2023/11/13 10:43:49;;;;;;;9.50;3.33;;;;;;;10.57;83.27;97865.63;5036724;27;102668;-68
2023/11/13 10:46:30;;;;;;;7.88;3.25;;;;;;;10.55;83.46;97862.34;5028980;27;103966;-69
2023/11/13 10:49:01;;;;;;;8.27;2.70;;;;;;;10.65;84.09;97840.84;5029650;27;104377;-70
2023/11/13 10:51:30;;;;;;;6.82;3.13;;;;;;;10.77;84.32;97839.34;5025255;27;103214;-69
2023/11/13 10:54:03;;;;;;;5.35;2.78;;;;;;;10.90;84.16;97835.97;5034735;27;102695;-70
2023/11/13 10:56:34;;;;;;;6.03;2.60;;;;;;;11.00;84.25;97843.59;5024327;27;102810;-70
2023/11/13 10:59:03;;;;;;;5.38;2.40;;;;;;;11.08;83.84;97831.03;5032571;27;102875;-70
2023/11/13 11:01:37;;;;;;;12.73;2.70;;;;;;;11.16;83.74;97826.59;5024616;27;103348;-71
2023/11/13 11:04:10;;;;;;;6.40;2.60;;;;;;;11.25;83.93;97820.97;5028781;27;103948;-70
2023/11/13 11:06:41;;;;;;;4.18;2.25;;;;;;;11.30;83.90;97828.31;5034264;27;102748;-70
2023/11/13 11:09:12;;;;;;;3.70;2.08;;;;;;;11.36;83.81;97832.84;5030214;27;103234;-70
2023/11/13 11:11:41;;;;;;;3.75;2.08;;;;;;;11.39;83.52;97837.75;5027132;27;103194;-69
2023/11/13 11:14:16;;;;;;;5.30;2.15;;;;;;;11.43;83.88;97833.69;5027963;27;102617;-70
2023/11/13 11:16:51;;;;;;;7.50;2.20;;;;;;;11.47;83.26;97818.22;5032579;27;104026;-70
2023/11/13 11:19:29;;;;;;;4.78;2.72;;;;;;;11.48;83.59;97819.06;5031319;27;103255;-69
2023/11/13 11:22:08;;;;;;;4.15;2.25;;;;;;;11.52;83.63;97820.28;5018351;27;103317;-70
2023/11/13 11:24:55;;;;;;;6.50;2.63;;;;;;;11.55;84.06;97819.91;5024233;27;102664;-70
2023/11/13 11:27:37;;;;;;;7.07;2.20;;;;;;;11.56;84.41;97824.19;5010492;27;104014;-65
2023/11/13 11:30:35;;;;;;;4.95;2.05;;;;;;;11.61;84.21;97827.06;5033243;27;103195;-66
2023/11/13 11:33:05;;;;;;;4.30;2.35;;;;;;;11.63;84.37;97827.69;5007172;27;103181;-66
2023/11/13 11:35:41;;;;;;;5.10;2.20;;;;;;;11.70;83.93;97811.78;5011026;27;102709;-70
2023/11/13 11:38:17;;;;;;;5.43;2.70;;;;;;;11.67;84.49;97802.44;5030914;27;102907;-67
2023/11/13 11:40:47;;;;;;;5.80;2.20;;;;;;;11.79;83.74;97800.03;5031370;27;103284;-68